Time;durP1;ratioP1;P1;durP2;ratioP2;P2;SDS_P1;SDS_P2;PMS_P1;PMS_P2;Temp;Humidity;BMP_temperature;BMP_pressure;BME280_temperature;BME280_humidity;BME280_pressure;Samples;Min_cycle;Max_cycle;Signal;HPM_P1;HPM_P2
2022/12/31 00:01:42;;;;;;;2.72;1.70;;;;;;;;;;5069122;28;20029;-76
2022/12/31 00:04:07;;;;;;;3.03;1.95;;;;;;;;;;5063502;28;20102;-77
2022/12/31 00:06:34;;;;;;;2.97;1.75;;;;;;;;;;5059308;28;20036;-76
2022/12/31 00:09:02;;;;;;;3.33;1.98;;;;;;;;;;5067567;28;20126;-76
2022/12/31 00:11:29;;;;;;;2.78;2.05;;;;;;;;;;5071100;28;20089;-76
2022/12/31 00:13:54;;;;;;;3.45;2.35;;;;;;;;;;5063075;28;20028;-76
2022/12/31 00:16:21;;;;;;;2.88;2.08;;;;;;;;;;5062826;28;20791;-76
2022/12/31 00:18:49;;;;;;;4.47;2.10;;;;;;;;;;5062367;28;20106;-76
2022/12/31 00:21:15;;;;;;;3.65;2.10;;;;;;;;;;5064366;28;20480;-75
2022/12/31 00:23:41;;;;;;;3.65;2.25;;;;;;;;;;5068152;28;20028;-76
2022/12/31 00:26:12;;;;;;;3.33;2.20;;;;;;;;;;5064085;28;20024;-76
2022/12/31 00:28:38;;;;;;;4.28;1.80;;;;;;;;;;5066854;28;20485;-76
2022/12/31 00:31:07;;;;;;;3.50;1.83;;;;;;;;;;5068093;28;20028;-76
2022/12/31 00:33:32;;;;;;;3.38;1.77;;;;;;;;;;5070373;28;20388;-76
2022/12/31 00:36:13;;;;;;;2.40;1.73;;;;;;;;;;5067834;28;20031;-76
2022/12/31 00:38:39;;;;;;;3.80;1.85;;;;;;;;;;5063422;28;20081;-76
2022/12/31 00:41:06;;;;;;;3.28;2.00;;;;;;;;;;5067461;28;20021;-75
2022/12/31 00:43:32;;;;;;;2.97;1.67;;;;;;;;;;5071988;28;20052;-76
2022/12/31 00:45:58;;;;;;;3.15;0.80;;;;;;;;;;5068624;28;20459;-76
2022/12/31 00:48:24;;;;;;;0.65;0.50;;;;;;;;;;5075567;28;20081;-76
2022/12/31 00:50:50;;;;;;;1.23;0.55;;;;;;;;;;5072613;28;20427;-76
2022/12/31 00:53:16;;;;;;;2.78;0.50;;;;;;;;;;5068242;28;20119;-76
2022/12/31 00:55:41;;;;;;;2.92;0.60;;;;;;;;;;5072710;28;20472;-77
2022/12/31 00:58:06;;;;;;;1.20;0.40;;;;;;;;;;5069372;28;20108;-76
2022/12/31 01:00:32;;;;;;;2.67;0.50;;;;;;;;;;5071414;28;20024;-76
2022/12/31 01:02:57;;;;;;;2.35;0.60;;;;;;;;;;5070892;28;20542;-77
2022/12/31 01:05:23;;;;;;;0.77;0.50;;;;;;;;;;5071140;28;20112;-76
2022/12/31 01:07:48;;;;;;;1.17;0.57;;;;;;;;;;5070434;28;20064;-76
2022/12/31 01:11:17;;;;;;;4.20;0.60;;;;;;;;;;5067801;28;20452;-76
2022/12/31 01:12:59;;;;;;;0.80;0.40;;;;;;;;;;5072826;28;20040;-77
2022/12/31 01:15:24;;;;;;;1.65;0.70;;;;;;;;;;5062208;28;20682;-76
2022/12/31 01:17:50;;;;;;;1.80;0.65;;;;;;;;;;5070387;28;20025;-76
2022/12/31 01:20:15;;;;;;;1.75;0.73;;;;;;;;;;5068711;28;20396;-77
2022/12/31 01:22:40;;;;;;;4.10;0.70;;;;;;;;;;5073245;28;20073;-77
2022/12/31 01:25:06;;;;;;;1.67;0.70;;;;;;;;;;5065442;28;20428;-77
2022/12/31 01:27:31;;;;;;;1.05;0.60;;;;;;;;;;5072988;28;20103;-76
2022/12/31 01:29:57;;;;;;;2.50;0.95;;;;;;;;;;5066023;28;20052;-77
2022/12/31 01:32:22;;;;;;;1.80;0.80;;;;;;;;;;5068489;28;20028;-76
2022/12/31 01:34:47;;;;;;;2.63;0.80;;;;;;;;;;5066693;28;20024;-77
2022/12/31 01:37:15;;;;;;;1.48;0.80;;;;;;;;;;5068482;28;20407;-76
2022/12/31 01:39:41;;;;;;;3.42;1.02;;;;;;;;;;5068453;28;20097;-76
2022/12/31 01:42:10;;;;;;;1.55;0.80;;;;;;;;;;5064538;28;20468;-77
2022/12/31 01:44:49;;;;;;;2.65;1.10;;;;;;;;;;5066479;28;20039;-76
2022/12/31 01:47:18;;;;;;;3.10;1.10;;;;;;;;;;5076478;28;20027;-76
2022/12/31 01:49:46;;;;;;;2.38;1.00;;;;;;;;;;5071193;28;20067;-76
2022/12/31 01:52:29;;;;;;;3.53;1.05;;;;;;;;;;5068041;28;20024;-76
2022/12/31 01:55:02;;;;;;;2.63;1.65;;;;;;;;;;5061643;28;20025;-77
2022/12/31 01:57:28;;;;;;;2.03;1.15;;;;;;;;;;5069900;28;20439;-76
2022/12/31 01:59:55;;;;;;;2.05;1.15;;;;;;;;;;5068683;28;20067;-76
2022/12/31 02:02:21;;;;;;;1.98;1.15;;;;;;;;;;5070840;28;20028;-76
2022/12/31 02:04:49;;;;;;;2.92;1.15;;;;;;;;;;5062918;28;20035;-76
2022/12/31 02:07:15;;;;;;;3.83;1.80;;;;;;;;;;5066453;28;20021;-76
2022/12/31 02:09:41;;;;;;;2.40;1.50;;;;;;;;;;5072423;28;20029;-76
2022/12/31 02:12:08;;;;;;;3.65;1.52;;;;;;;;;;5065711;28;20197;-77
2022/12/31 02:14:50;;;;;;;4.35;1.52;;;;;;;;;;5063431;28;20484;-76
2022/12/31 02:17:21;;;;;;;2.47;1.65;;;;;;;;;;5062181;28;20028;-76
2022/12/31 02:19:52;;;;;;;3.40;1.60;;;;;;;;;;5063824;28;20431;-75
2022/12/31 02:22:39;;;;;;;3.35;1.55;;;;;;;;;;5065323;28;20648;-76
2022/12/31 02:25:10;;;;;;;3.60;1.90;;;;;;;;;;5072309;28;20028;-76
2022/12/31 02:28:14;;;;;;;5.25;1.65;;;;;;;;;;5062353;28;20987;-76
2022/12/31 02:30:44;;;;;;;2.58;1.67;;;;;;;;;;5069502;28;20110;-75
2022/12/31 02:33:16;;;;;;;2.90;1.67;;;;;;;;;;5064710;28;20641;-75
2022/12/31 02:36:04;;;;;;;3.47;2.10;;;;;;;;;;5067663;28;20477;-76
2022/12/31 02:38:37;;;;;;;3.13;2.10;;;;;;;;;;5066774;28;20028;-75
2022/12/31 02:41:03;;;;;;;3.88;2.35;;;;;;;;;;5072107;28;20028;-76
2022/12/31 02:43:28;;;;;;;4.30;2.60;;;;;;;;;;5067747;28;20039;-76
2022/12/31 02:46:20;;;;;;;3.95;2.70;;;;;;;;;;5065081;28;20038;-76
2022/12/31 02:48:50;;;;;;;4.63;2.85;;;;;;;;;;5062616;28;20468;-76
2022/12/31 02:51:37;;;;;;;4.97;2.90;;;;;;;;;;5066984;28;20472;-75
2022/12/31 02:54:17;;;;;;;4.65;2.53;;;;;;;;;;5066745;28;20017;-76
2022/12/31 02:57:04;;;;;;;5.03;2.83;;;;;;;;;;5067550;28;20430;-76
2022/12/31 03:02:29;;;;;;;3.58;2.35;;;;;;;;;;5071327;28;20035;-76
2022/12/31 03:04:56;;;;;;;4.28;2.67;;;;;;;;;;5062722;28;20029;-75
2022/12/31 03:07:27;;;;;;;3.80;2.08;;;;;;;;;;5070497;28;20023;-75
2022/12/31 03:09:53;;;;;;;4.43;2.35;;;;;;;;;;5066658;28;20400;-76
2022/12/31 03:15:06;;;;;;;3.28;1.88;;;;;;;;;;5062548;28;20039;-76
2022/12/31 03:17:32;;;;;;;3.45;1.50;;;;;;;;;;5063912;28;20037;-75
2022/12/31 03:22:42;;;;;;;2.38;1.38;;;;;;;;;;5065768;28;20384;-77
2022/12/31 03:27:57;;;;;;;2.53;1.60;;;;;;;;;;5066295;28;20388;-76
2022/12/31 03:30:23;;;;;;;2.03;1.48;;;;;;;;;;5067078;28;20024;-76
2022/12/31 03:32:49;;;;;;;3.75;1.90;;;;;;;;;;5069136;28;20429;-76
2022/12/31 03:35:16;;;;;;;2.75;1.70;;;;;;;;;;5066110;28;20103;-76
2022/12/31 03:37:42;;;;;;;3.50;1.90;;;;;;;;;;5071942;28;20472;-76
2022/12/31 03:40:10;;;;;;;2.55;1.67;;;;;;;;;;5066773;28;20025;-76
2022/12/31 03:42:35;;;;;;;3.30;1.60;;;;;;;;;;5064736;28;20037;-76
2022/12/31 03:45:01;;;;;;;2.80;1.67;;;;;;;;;;5065570;28;20035;-76
2022/12/31 03:47:27;;;;;;;2.55;1.65;;;;;;;;;;5061030;28;20043;-76
2022/12/31 03:49:52;;;;;;;3.55;2.15;;;;;;;;;;5068965;28;20020;-76
2022/12/31 03:52:17;;;;;;;2.88;1.77;;;;;;;;;;5076618;28;20028;-75
2022/12/31 03:54:43;;;;;;;3.30;1.70;;;;;;;;;;5069972;28;20032;-76
2022/12/31 03:57:08;;;;;;;2.35;1.52;;;;;;;;;;5063765;28;20036;-76
2022/12/31 03:59:34;;;;;;;3.70;1.80;;;;;;;;;;5063973;28;20114;-76
2022/12/31 04:01:59;;;;;;;3.22;1.70;;;;;;;;;;5067956;28;20042;-75
2022/12/31 04:04:24;;;;;;;3.10;1.80;;;;;;;;;;5062290;28;20028;-76
2022/12/31 04:06:50;;;;;;;3.83;1.70;;;;;;;;;;5064762;28;20032;-76
2022/12/31 04:09:15;;;;;;;2.42;1.40;;;;;;;;;;5068998;28;20035;-76
2022/12/31 04:11:40;;;;;;;2.40;1.38;;;;;;;;;;5061877;28;20025;-76
2022/12/31 04:14:06;;;;;;;2.38;1.52;;;;;;;;;;5068135;28;20021;-76
2022/12/31 04:16:31;;;;;;;1.95;1.42;;;;;;;;;;5057940;28;20028;-76
2022/12/31 04:18:57;;;;;;;2.97;1.50;;;;;;;;;;5065307;28;20028;-76
2022/12/31 04:21:23;;;;;;;2.08;1.27;;;;;;;;;;5066668;28;20033;-76
2022/12/31 04:23:49;;;;;;;2.58;1.40;;;;;;;;;;5065568;28;20025;-76
2022/12/31 04:26:14;;;;;;;1.90;1.30;;;;;;;;;;5062848;28;20028;-75
2022/12/31 04:28:39;;;;;;;2.00;1.35;;;;;;;;;;5061943;28;20040;-76
2022/12/31 04:31:05;;;;;;;1.73;1.30;;;;;;;;;;5063573;28;20086;-76
2022/12/31 04:33:30;;;;;;;2.60;1.40;;;;;;;;;;5061032;28;20060;-76
2022/12/31 04:36:06;;;;;;;2.05;1.20;;;;;;;;;;5063288;28;20040;-76
2022/12/31 04:38:32;;;;;;;2.58;1.20;;;;;;;;;;5066019;28;20507;-76
2022/12/31 04:41:15;;;;;;;2.63;1.35;;;;;;;;;;5063546;28;20021;-76
2022/12/31 04:43:42;;;;;;;1.50;1.00;;;;;;;;;;5061176;28;20028;-76
2022/12/31 04:46:07;;;;;;;2.08;1.40;;;;;;;;;;5062006;28;20106;-75
2022/12/31 04:48:33;;;;;;;2.13;1.23;;;;;;;;;;5063733;28;20021;-76
2022/12/31 04:50:59;;;;;;;1.63;1.13;;;;;;;;;;5061394;28;20115;-76
2022/12/31 04:53:24;;;;;;;2.08;1.20;;;;;;;;;;5063590;28;20480;-76
2022/12/31 04:55:50;;;;;;;3.00;1.33;;;;;;;;;;5062598;28;20020;-76
2022/12/31 04:58:16;;;;;;;2.67;1.50;;;;;;;;;;5075159;28;20439;-76
2022/12/31 05:00:43;;;;;;;1.95;1.30;;;;;;;;;;5065337;28;20044;-77
2022/12/31 05:03:09;;;;;;;2.30;1.45;;;;;;;;;;5058988;28;20029;-76
2022/12/31 05:05:37;;;;;;;2.47;1.30;;;;;;;;;;5063718;28;20033;-76
2022/12/31 05:08:03;;;;;;;1.85;1.13;;;;;;;;;;5060388;28;20749;-76
2022/12/31 05:10:28;;;;;;;1.98;1.27;;;;;;;;;;5062025;28;20122;-76
2022/12/31 05:12:53;;;;;;;1.38;0.93;;;;;;;;;;5062097;28;20035;-76
2022/12/31 05:15:19;;;;;;;1.10;0.65;;;;;;;;;;5062766;28;20036;-76
2022/12/31 05:17:44;;;;;;;0.90;0.60;;;;;;;;;;5060827;28;20116;-76
2022/12/31 05:20:10;;;;;;;0.40;0.30;;;;;;;;;;5061164;28;20048;-76
2022/12/31 05:22:35;;;;;;;0.75;0.47;;;;;;;;;;5056856;28;20083;-76
2022/12/31 05:25:00;;;;;;;0.68;0.50;;;;;;;;;;5059613;28;20099;-77
2022/12/31 05:27:29;;;;;;;0.45;0.43;;;;;;;;;;5059174;28;20495;-76
2022/12/31 05:29:55;;;;;;;0.70;0.50;;;;;;;;;;5066707;28;20420;-76
2022/12/31 05:32:20;;;;;;;0.50;0.40;;;;;;;;;;5066818;28;20020;-76
2022/12/31 05:34:45;;;;;;;0.57;0.50;;;;;;;;;;5070961;28;20032;-76
2022/12/31 05:37:11;;;;;;;0.68;0.47;;;;;;;;;;5069612;28;20032;-76
2022/12/31 05:39:36;;;;;;;0.30;0.30;;;;;;;;;;5066230;28;20040;-76
2022/12/31 05:42:02;;;;;;;0.38;0.38;;;;;;;;;;5069979;28;20044;-76
2022/12/31 05:44:27;;;;;;;0.50;0.30;;;;;;;;;;5072042;28;20219;-75
2022/12/31 05:46:52;;;;;;;0.60;0.35;;;;;;;;;;5069220;28;20495;-76
2022/12/31 05:49:18;;;;;;;0.40;0.30;;;;;;;;;;5065699;28;20385;-76
2022/12/31 05:51:43;;;;;;;0.85;0.40;;;;;;;;;;5071114;28;20404;-76
2022/12/31 05:54:08;;;;;;;0.65;0.50;;;;;;;;;;5064484;28;20024;-76
2022/12/31 05:56:34;;;;;;;1.00;0.40;;;;;;;;;;5068187;28;20392;-77
2022/12/31 05:58:59;;;;;;;1.17;0.40;;;;;;;;;;5065968;28;20025;-76
2022/12/31 06:01:24;;;;;;;0.98;0.45;;;;;;;;;;5067778;28;20074;-75
2022/12/31 06:03:50;;;;;;;0.50;0.32;;;;;;;;;;5066928;28;20085;-76
2022/12/31 06:06:15;;;;;;;0.93;0.50;;;;;;;;;;5072065;28;20028;-76
2022/12/31 06:08:41;;;;;;;0.70;0.40;;;;;;;;;;5066839;28;20137;-75
2022/12/31 06:11:06;;;;;;;0.50;0.40;;;;;;;;;;5064776;28;20032;-76
2022/12/31 06:13:31;;;;;;;0.90;0.60;;;;;;;;;;5060750;28;20024;-76
2022/12/31 06:15:57;;;;;;;1.88;0.95;;;;;;;;;;5065453;28;20029;-76
2022/12/31 06:18:22;;;;;;;2.60;1.17;;;;;;;;;;5059697;28;20045;-77
2022/12/31 06:20:50;;;;;;;2.80;1.13;;;;;;;;;;5060488;28;20029;-76
2022/12/31 06:23:16;;;;;;;2.20;1.10;;;;;;;;;;5072158;28;20381;-76
2022/12/31 06:25:41;;;;;;;1.15;0.80;;;;;;;;;;5066669;28;20039;-76
2022/12/31 06:28:08;;;;;;;2.10;1.08;;;;;;;;;;5066827;28;20174;-76
2022/12/31 06:30:33;;;;;;;1.13;0.70;;;;;;;;;;5069648;28;20051;-76
2022/12/31 06:32:59;;;;;;;1.00;0.70;;;;;;;;;;5061880;28;20219;-75
2022/12/31 06:35:25;;;;;;;1.33;0.60;;;;;;;;;;5061943;28;20052;-75
2022/12/31 06:37:51;;;;;;;0.98;0.50;;;;;;;;;;5066789;28;20024;-75
2022/12/31 06:40:16;;;;;;;0.60;0.50;;;;;;;;;;5065059;28;20043;-75
2022/12/31 06:42:42;;;;;;;0.52;0.47;;;;;;;;;;5066888;28;20480;-75
2022/12/31 06:45:07;;;;;;;1.25;0.52;;;;;;;;;;5070522;28;20543;-76
2022/12/31 06:47:33;;;;;;;1.58;0.52;;;;;;;;;;5068286;28;20043;-75
2022/12/31 06:49:58;;;;;;;2.85;0.70;;;;;;;;;;5069099;28;20119;-75
2022/12/31 06:52:24;;;;;;;1.42;0.60;;;;;;;;;;5066694;28;20539;-76
2022/12/31 06:54:49;;;;;;;1.95;0.60;;;;;;;;;;5069440;28;20107;-75
2022/12/31 06:57:15;;;;;;;0.68;0.50;;;;;;;;;;5065363;28;20047;-77
2022/12/31 06:59:41;;;;;;;1.05;0.50;;;;;;;;;;5066433;28;20055;-76
2022/12/31 07:02:16;;;;;;;3.05;0.60;;;;;;;;;;5064018;28;20097;-75
2022/12/31 07:05:05;;;;;;;0.95;0.50;;;;;;;;;;5061130;28;20119;-76
2022/12/31 07:07:37;;;;;;;3.15;0.50;;;;;;;;;;5068072;28;20138;-75
2022/12/31 07:10:21;;;;;;;1.00;0.60;;;;;;;;;;5064768;28;20039;-75
2022/12/31 07:13:23;;;;;;;1.63;0.50;;;;;;;;;;5064700;28;20153;-76
2022/12/31 07:16:01;;;;;;;1.65;0.40;;;;;;;;;;5062467;28;20028;-76
2022/12/31 07:18:53;;;;;;;1.25;0.57;;;;;;;;;;5064324;28;20032;-76
2022/12/31 07:21:29;;;;;;;3.55;0.60;;;;;;;;;;5058611;28;20400;-76
2022/12/31 07:23:55;;;;;;;2.67;0.50;;;;;;;;;;5068840;28;20039;-75
2022/12/31 07:26:38;;;;;;;2.45;0.60;;;;;;;;;;5056516;28;20436;-75
2022/12/31 07:29:31;;;;;;;1.42;0.50;;;;;;;;;;5066146;28;20033;-76
2022/12/31 07:32:31;;;;;;;2.70;0.75;;;;;;;;;;5068740;28;20404;-76
2022/12/31 07:35:21;;;;;;;1.30;0.38;;;;;;;;;;5065313;28;20040;-76
2022/12/31 07:38:17;;;;;;;1.15;0.50;;;;;;;;;;5067508;28;20194;-76
2022/12/31 07:41:22;;;;;;;0.68;0.30;;;;;;;;;;5060111;28;20083;-77
2022/12/31 07:44:01;;;;;;;4.05;0.70;;;;;;;;;;5068925;28;20384;-76
2022/12/31 07:46:58;;;;;;;2.38;0.40;;;;;;;;;;5064780;28;20036;-76
2022/12/31 07:49:25;;;;;;;1.58;0.50;;;;;;;;;;5065158;28;20024;-77
2022/12/31 07:51:51;;;;;;;2.53;0.52;;;;;;;;;;5078498;28;20151;-76
2022/12/31 07:54:17;;;;;;;2.25;0.50;;;;;;;;;;5064656;28;20028;-77
2022/12/31 07:56:43;;;;;;;4.20;0.80;;;;;;;;;;5066256;28;20017;-76
2022/12/31 07:59:26;;;;;;;3.45;0.55;;;;;;;;;;5062660;28;20039;-76
2022/12/31 08:02:13;;;;;;;1.55;0.80;;;;;;;;;;5062463;28;20032;-77
2022/12/31 08:04:50;;;;;;;3.10;0.93;;;;;;;;;;5062232;28;20078;-76
2022/12/31 08:07:44;;;;;;;3.45;0.70;;;;;;;;;;5064855;28;20035;-76
2022/12/31 08:10:26;;;;;;;6.85;0.80;;;;;;;;;;5063653;28;20044;-76
2022/12/31 08:12:59;;;;;;;5.30;1.00;;;;;;;;;;5064665;28;20028;-76
2022/12/31 08:15:25;;;;;;;2.85;0.85;;;;;;;;;;5062805;28;20052;-77
2022/12/31 08:17:51;;;;;;;4.43;0.57;;;;;;;;;;5054272;28;20052;-76
2022/12/31 08:20:17;;;;;;;1.20;0.40;;;;;;;;;;5068924;28;20029;-76
2022/12/31 08:23:07;;;;;;;0.82;0.30;;;;;;;;;;5062989;28;20452;-76
2022/12/31 08:26:06;;;;;;;0.20;0.20;;;;;;;;;;5063921;28;20025;-76
2022/12/31 08:28:50;;;;;;;1.20;0.20;;;;;;;;;;5057627;28;20041;-76
2022/12/31 08:31:20;;;;;;;3.30;0.30;;;;;;;;;;5063136;28;20039;-76
2022/12/31 08:34:00;;;;;;;0.82;0.22;;;;;;;;;;5064541;28;20066;-75
2022/12/31 08:36:51;;;;;;;1.85;0.30;;;;;;;;;;5062451;28;20046;-76
2022/12/31 08:39:41;;;;;;;3.88;0.20;;;;;;;;;;5058962;28;20036;-76
2022/12/31 08:42:20;;;;;;;0.75;0.13;;;;;;;;;;5066659;28;20029;-76
2022/12/31 08:44:48;;;;;;;1.95;0.30;;;;;;;;;;5062642;28;20027;-76
2022/12/31 08:47:30;;;;;;;1.70;0.30;;;;;;;;;;5063736;28;20485;-77
2022/12/31 08:49:55;;;;;;;1.58;0.40;;;;;;;;;;5064887;28;20028;-76
2022/12/31 08:52:24;;;;;;;2.40;0.52;;;;;;;;;;5060732;28;20439;-75
2022/12/31 08:54:49;;;;;;;1.35;0.60;;;;;;;;;;5055174;28;20067;-76
2022/12/31 08:57:22;;;;;;;1.40;0.60;;;;;;;;;;5060481;28;20123;-76
2022/12/31 08:59:56;;;;;;;2.80;0.73;;;;;;;;;;5065667;28;20024;-76
2022/12/31 09:02:33;;;;;;;10.60;0.98;;;;;;;;;;5065350;28;20269;-76
2022/12/31 09:05:04;;;;;;;2.33;0.75;;;;;;;;;;5066959;28;20028;-76
2022/12/31 09:07:47;;;;;;;1.60;1.00;;;;;;;;;;5070051;28;20089;-76
2022/12/31 09:10:41;;;;;;;2.40;0.65;;;;;;;;;;5058192;28;20025;-76
2022/12/31 09:13:28;;;;;;;1.58;0.63;;;;;;;;;;5065702;28;20084;-76
2022/12/31 09:15:59;;;;;;;3.25;0.88;;;;;;;;;;5069967;28;20165;-76
2022/12/31 09:18:24;;;;;;;1.90;0.88;;;;;;;;;;5066073;28;20536;-76
2022/12/31 09:20:50;;;;;;;2.55;0.75;;;;;;;;;;5068311;28;20024;-76
2022/12/31 09:23:15;;;;;;;3.72;0.70;;;;;;;;;;5071515;28;20036;-76
2022/12/31 09:25:50;;;;;;;3.42;0.90;;;;;;;;;;5065039;28;20070;-76
2022/12/31 09:28:24;;;;;;;8.48;1.13;;;;;;;;;;5065121;28;20043;-76
2022/12/31 09:31:01;;;;;;;2.00;0.73;;;;;;;;;;5061792;28;20055;-76
2022/12/31 09:33:36;;;;;;;3.70;0.95;;;;;;;;;;5061941;28;20024;-76
2022/12/31 09:36:15;;;;;;;4.00;1.10;;;;;;;;;;5063050;28;20373;-76
2022/12/31 09:38:58;;;;;;;2.03;0.70;;;;;;;;;;5067160;28;20059;-76
2022/12/31 09:41:45;;;;;;;3.47;0.90;;;;;;;;;;5065068;28;20037;-76
2022/12/31 09:44:55;;;;;;;3.08;0.95;;;;;;;;;;5065582;28;20059;-77
2022/12/31 09:47:39;;;;;;;2.60;1.00;;;;;;;;;;5058585;28;20401;-76
2022/12/31 09:50:47;;;;;;;5.00;0.90;;;;;;;;;;5060262;28;20066;-77
2022/12/31 09:53:15;;;;;;;2.85;0.90;;;;;;;;;;5062583;28;20455;-76
2022/12/31 09:56:21;;;;;;;1.85;0.68;;;;;;;;;;5069873;28;20078;-76
2022/12/31 09:59:16;;;;;;;1.98;0.80;;;;;;;;;;5070969;28;20028;-76
2022/12/31 10:01:50;;;;;;;3.05;0.82;;;;;;;;;;5066526;28;20043;-76
2022/12/31 10:04:48;;;;;;;1.90;0.90;;;;;;;;;;5070743;28;20020;-76
2022/12/31 10:07:35;;;;;;;2.08;0.80;;;;;;;;;;5068256;28;20112;-76
2022/12/31 10:10:52;;;;;;;3.50;0.85;;;;;;;;;;5068354;28;20480;-76
2022/12/31 10:13:25;;;;;;;3.15;0.80;;;;;;;;;;5059572;28;20090;-76
2022/12/31 10:16:20;;;;;;;3.88;1.05;;;;;;;;;;5070383;28;20115;-76
2022/12/31 10:18:59;;;;;;;2.30;1.00;;;;;;;;;;5070359;28;20039;-76
2022/12/31 10:21:57;;;;;;;3.63;1.20;;;;;;;;;;5069362;28;20111;-76
2022/12/31 10:24:47;;;;;;;5.80;1.13;;;;;;;;;;5074444;28;20050;-76
2022/12/31 10:27:44;;;;;;;3.45;1.00;;;;;;;;;;5067284;28;20024;-76
2022/12/31 10:30:21;;;;;;;2.75;0.98;;;;;;;;;;5061096;28;20523;-76
2022/12/31 10:33:15;;;;;;;4.43;1.25;;;;;;;;;;5063886;28;20435;-76
2022/12/31 10:36:07;;;;;;;4.13;1.30;;;;;;;;;;5068221;28;20511;-76
2022/12/31 10:39:06;;;;;;;3.35;0.90;;;;;;;;;;5065482;28;20033;-76
2022/12/31 10:41:56;;;;;;;3.08;1.13;;;;;;;;;;5067453;28;20032;-76
2022/12/31 10:44:46;;;;;;;3.00;1.00;;;;;;;;;;5066028;28;20036;-76
2022/12/31 10:47:44;;;;;;;4.85;1.10;;;;;;;;;;5067355;28;20654;-76
2022/12/31 10:50:27;;;;;;;4.00;1.60;;;;;;;;;;5067450;28;20063;-76
2022/12/31 10:53:28;;;;;;;5.70;1.33;;;;;;;;;;5067414;28;20029;-78
2022/12/31 10:56:13;;;;;;;4.85;1.30;;;;;;;;;;5063322;28;20142;-76
2022/12/31 10:58:38;;;;;;;2.80;1.00;;;;;;;;;;5067245;28;20380;-76
2022/12/31 11:01:27;;;;;;;3.00;1.30;;;;;;;;;;5067429;28;20025;-77
2022/12/31 11:04:26;;;;;;;5.30;1.00;;;;;;;;;;5066343;28;20028;-77
2022/12/31 11:07:09;;;;;;;3.15;1.10;;;;;;;;;;5064548;28;20369;-76
2022/12/31 11:09:47;;;;;;;;;;;;;;;;;;5070308;28;20031;-77
2022/12/31 11:13:05;;;;;;;4.53;1.20;;;;;;;;;;5068016;28;19927;-76
2022/12/31 11:15:49;;;;;;;3.47;1.13;;;;;;;;;;5066103;28;20032;-76
2022/12/31 11:18:37;;;;;;;4.03;1.50;;;;;;;;;;5063446;28;20036;-77
2022/12/31 11:21:05;;;;;;;3.83;1.27;;;;;;;;;;5054800;28;20118;-77
2022/12/31 11:23:58;;;;;;;3.50;1.17;;;;;;;;;;5052537;28;20773;-78
2022/12/31 11:27:00;;;;;;;3.53;1.20;;;;;;;;;;5058894;28;20027;-77
2022/12/31 11:29:47;;;;;;;6.28;1.30;;;;;;;;;;5051455;28;20068;-78
2022/12/31 11:32:51;;;;;;;6.28;1.13;;;;;;;;;;5050692;28;20227;-77
2022/12/31 11:35:35;;;;;;;;;;;;;;;;;;5048107;28;20433;-76
2022/12/31 11:38:23;;;;;;;4.65;1.10;;;;;;;;;;5054364;28;19960;-76
2022/12/31 11:41:07;;;;;;;6.07;1.00;;;;;;;;;;5053107;28;20040;-77
2022/12/31 11:43:38;;;;;;;4.43;1.45;;;;;;;;;;5050988;28;20028;-78
2022/12/31 11:46:34;;;;;;;3.88;1.10;;;;;;;;;;5061430;28;20031;-77
2022/12/31 11:48:59;;;;;;;4.63;1.10;;;;;;;;;;5068974;28;20042;-77
2022/12/31 11:51:24;;;;;;;4.32;1.08;;;;;;;;;;5059106;28;20028;-77
2022/12/31 11:54:38;;;;;;;3.38;0.90;;;;;;;;;;5056241;28;20446;-77
2022/12/31 11:57:22;;;;;;;4.03;1.23;;;;;;;;;;5058798;28;20043;-77
2022/12/31 11:59:49;;;;;;;3.35;1.10;;;;;;;;;;5063681;28;20024;-77
2022/12/31 12:02:30;;;;;;;2.88;1.00;;;;;;;;;;5059614;28;20618;-77
2022/12/31 12:04:58;;;;;;;4.20;0.95;;;;;;;;;;5056257;28;20025;-77
2022/12/31 12:07:25;;;;;;;2.28;0.98;;;;;;;;;;5056063;28;20408;-77
2022/12/31 12:09:53;;;;;;;2.70;1.00;;;;;;;;;;5063136;28;20032;-77
2022/12/31 12:12:18;;;;;;;5.55;1.40;;;;;;;;;;5060274;28;20220;-77
2022/12/31 12:14:48;;;;;;;3.55;1.15;;;;;;;;;;5052294;28;20029;-77
2022/12/31 12:17:20;;;;;;;5.00;1.10;;;;;;;;;;5049017;28;20074;-77
2022/12/31 12:19:52;;;;;;;5.43;1.27;;;;;;;;;;5054580;28;20035;-77
2022/12/31 12:22:23;;;;;;;5.67;1.20;;;;;;;;;;5051526;28;20057;-78
2022/12/31 12:25:12;;;;;;;4.90;1.30;;;;;;;;;;5055847;28;20078;-77
2022/12/31 12:27:38;;;;;;;5.20;1.20;;;;;;;;;;5054621;28;20024;-78
2022/12/31 12:30:16;;;;;;;4.13;1.80;;;;;;;;;;5058305;28;20062;-78
2022/12/31 12:32:50;;;;;;;9.88;1.67;;;;;;;;;;5056400;28;20028;-77
2022/12/31 12:35:24;;;;;;;4.25;1.30;;;;;;;;;;5055205;28;20033;-77
2022/12/31 12:38:02;;;;;;;4.47;1.20;;;;;;;;;;5059195;28;20594;-77
2022/12/31 12:40:29;;;;;;;6.65;1.17;;;;;;;;;;5051457;28;20032;-77
2022/12/31 12:42:54;;;;;;;3.78;1.25;;;;;;;;;;5059094;28;20071;-77
2022/12/31 12:45:23;;;;;;;3.13;1.15;;;;;;;;;;5057344;28;20035;-77
2022/12/31 12:48:00;;;;;;;5.28;1.50;;;;;;;;;;5064447;28;20429;-77
2022/12/31 12:50:37;;;;;;;6.10;1.60;;;;;;;;;;5059495;28;20036;-77
2022/12/31 12:53:10;;;;;;;3.30;1.30;;;;;;;;;;5054884;28;20032;-77
2022/12/31 12:55:58;;;;;;;;;;;;;;;;;;5057108;28;20032;-77
2022/12/31 12:58:47;;;;;;;4.70;1.20;;;;;;;;;;5056709;28;19916;-77
2022/12/31 13:01:40;;;;;;;5.60;1.50;;;;;;;;;;5054050;28;20116;-77
2022/12/31 13:04:21;;;;;;;3.90;1.15;;;;;;;;;;5060140;28;20024;-77
2022/12/31 13:07:08;;;;;;;4.60;1.80;;;;;;;;;;5051511;28;20157;-77
2022/12/31 13:09:42;;;;;;;7.00;5.05;;;;;;;;;;5054173;28;20031;-77
2022/12/31 13:12:18;;;;;;;5.20;1.42;;;;;;;;;;5054626;28;20035;-77
2022/12/31 13:14:54;;;;;;;4.40;1.30;;;;;;;;;;5055733;28;20461;-77
2022/12/31 13:17:38;;;;;;;5.22;1.95;;;;;;;;;;5056440;28;20704;-77
2022/12/31 13:20:29;;;;;;;3.50;1.27;;;;;;;;;;5048969;28;20480;-77
2022/12/31 13:23:01;;;;;;;5.13;1.38;;;;;;;;;;5050592;28;20244;-77
2022/12/31 13:26:00;;;;;;;3.45;1.10;;;;;;;;;;5053449;28;20040;-77
2022/12/31 13:28:26;;;;;;;5.03;1.50;;;;;;;;;;5054146;28;20047;-77
2022/12/31 13:31:04;;;;;;;4.57;1.15;;;;;;;;;;5055684;28;20197;-77
2022/12/31 13:33:38;;;;;;;4.30;1.27;;;;;;;;;;5057597;28;20110;-77
2022/12/31 13:36:09;;;;;;;3.72;1.55;;;;;;;;;;5053769;28;20020;-77
2022/12/31 13:38:46;;;;;;;9.27;2.83;;;;;;;;;;5059702;28;20024;-78
2022/12/31 13:41:22;;;;;;;7.55;3.33;;;;;;;;;;5054937;28;20028;-78
2022/12/31 13:44:16;;;;;;;6.03;2.03;;;;;;;;;;5056748;28;20032;-77
2022/12/31 13:46:55;;;;;;;6.78;1.60;;;;;;;;;;5060721;28;21027;-78
2022/12/31 13:49:23;;;;;;;6.30;1.90;;;;;;;;;;5061812;28;20048;-78
2022/12/31 13:51:53;;;;;;;3.25;1.40;;;;;;;;;;5062486;28;20032;-77
2022/12/31 13:54:44;;;;;;;5.20;1.70;;;;;;;;;;5059613;28;20024;-78
2022/12/31 13:57:32;;;;;;;6.10;1.63;;;;;;;;;;5054911;28;20666;-78
2022/12/31 14:00:02;;;;;;;4.65;1.33;;;;;;;;;;5044905;28;20048;-77
2022/12/31 14:02:36;;;;;;;4.65;1.48;;;;;;;;;;5064100;28;20037;-78
2022/12/31 14:05:11;;;;;;;5.80;1.20;;;;;;;;;;5058489;28;20068;-78
2022/12/31 14:07:53;;;;;;;4.35;1.25;;;;;;;;;;5058514;28;20025;-78
2022/12/31 14:10:27;;;;;;;5.40;1.35;;;;;;;;;;5060821;28;20074;-78
2022/12/31 14:13:24;;;;;;;4.97;1.45;;;;;;;;;;5060827;28;20028;-78
2022/12/31 14:16:05;;;;;;;7.30;1.50;;;;;;;;;;5060961;28;20500;-78
2022/12/31 14:18:41;;;;;;;5.60;1.40;;;;;;;;;;5056253;28;20039;-78
2022/12/31 14:21:38;;;;;;;5.97;1.40;;;;;;;;;;5058735;28;20389;-78
2022/12/31 14:24:03;;;;;;;6.45;2.00;;;;;;;;;;5060940;28;20044;-77
2022/12/31 14:26:34;;;;;;;7.95;2.78;;;;;;;;;;5061389;28;20036;-78
2022/12/31 14:29:13;;;;;;;5.60;1.73;;;;;;;;;;5061601;28;20039;-77
2022/12/31 14:31:44;;;;;;;6.95;2.03;;;;;;;;;;5062501;28;20113;-78
2022/12/31 14:34:32;;;;;;;8.20;1.70;;;;;;;;;;5063855;28;20036;-78
2022/12/31 14:37:00;;;;;;;7.43;1.50;;;;;;;;;;5063066;28;20378;-77
2022/12/31 14:39:43;;;;;;;5.57;1.58;;;;;;;;;;5063209;28;20806;-78
2022/12/31 14:42:17;;;;;;;;;;;;;;;;;;5062438;28;20041;-77
2022/12/31 14:45:00;;;;;;;;;;;;;;;;;;5064751;28;19916;-78
2022/12/31 14:47:43;;;;;;;6.90;1.40;;;;;;;;;;5066316;28;19920;-78
2022/12/31 14:50:16;;;;;;;6.68;1.27;;;;;;;;;;5053762;28;20558;-78
2022/12/31 14:52:53;;;;;;;5.55;2.15;;;;;;;;;;5062722;28;20028;-78
2022/12/31 14:55:23;;;;;;;8.55;1.77;;;;;;;;;;5065350;28;20447;-77
2022/12/31 14:57:50;;;;;;;6.97;1.45;;;;;;;;;;5062937;28;20032;-78
2022/12/31 15:00:30;;;;;;;6.60;1.98;;;;;;;;;;5062401;28;20039;-78
2022/12/31 15:03:14;;;;;;;7.68;2.25;;;;;;;;;;5058549;28;20413;-77
2022/12/31 15:05:50;;;;;;;8.32;2.20;;;;;;;;;;5057134;28;20036;-78
2022/12/31 15:08:34;;;;;;;8.43;2.05;;;;;;;;;;5076607;28;20112;-78
2022/12/31 15:11:08;;;;;;;5.38;2.08;;;;;;;;;;5061263;28;20038;-77
2022/12/31 15:14:06;;;;;;;9.35;2.35;;;;;;;;;;5059283;28;20112;-78
2022/12/31 15:17:06;;;;;;;10.75;2.20;;;;;;;;;;5078091;28;20040;-78
2022/12/31 15:19:35;;;;;;;10.05;3.20;;;;;;;;;;5061056;28;20048;-77
2022/12/31 15:22:26;;;;;;;11.57;2.90;;;;;;;;;;5059804;28;22034;-78
2022/12/31 15:24:52;;;;;;;8.32;2.75;;;;;;;;;;5056311;28;20030;-78
2022/12/31 15:27:37;;;;;;;14.00;4.80;;;;;;;;;;5059742;28;20021;-78
2022/12/31 15:30:06;;;;;;;8.57;2.40;;;;;;;;;;5059627;28;20522;-79
2022/12/31 15:32:42;;;;;;;4.90;1.90;;;;;;;;;;5057537;28;20032;-78
2022/12/31 15:35:19;;;;;;;8.50;2.47;;;;;;;;;;5059599;28;20447;-77
2022/12/31 15:38:19;;;;;;;7.57;2.03;;;;;;;;;;5062046;28;20032;-78
2022/12/31 15:40:52;;;;;;;6.38;1.90;;;;;;;;;;5053277;28;20041;-78